Strona główna
METAR-TAF:

METAR-TAF

Lotnisko :

Sussex Airport

Sussex, New Jersey, Stany Zjednoczone

Szerokość geograficzna: 41-12-01N, Długość geograficzna: 074-37-23W, wysokość: 128 m

Aktualna obserwacja pogody

Raport powstał 25 minut temu, godzina 04:53 UTC
Cisza
Temperatura -1°C
Wilgotność 80%
Ciśnienie 1019 hPa
Widzialność: 16.1 km
Mało chmury na wysokości 5000 ft
Zachmurzenie całkowite na wysokości 7000 ft

METAR: KFWN 170453Z AUTO 00000KT 10SM FEW050 OVC070 M01/M04 A3009 RMK AO2 SLP192 T10061044 400501033

czas: 00:18 (05:18 UTC)


TAF: brakujący

Obserwacja i prognoza pogody dla ponad 4000 lotnisk (raport METAR i TAF).

Dostępne stacje oznaczono żółtymi i czerwonymi punktami na mapie.

Najedź kursorem aby zobaczyć nazwę stacji.

Kliknij aby zobaczyć obserwacje i prognozy pogody.

Aby zmienić mapę: kliknij na zielony przycisk z czarnym krzyżykiem, aby powiększyć; na zielony przycisk z myślnikiem, aby pomniejszyć; na zielone strzałki, aby przejść do map sąsiednich.


METAR-TAF: